LBS weather

Labasa Airport
Northern, Fiji

Public forecast

Using degrees Celsius for public forecast. Weather courtesy of forecast.io.

Current aviation weather report (METAR) for Labasa Airport

Report is more than 6 hours old.

Retrieved 2020/08/07 11:00 UTC (2 days ago):

NFNL 071100Z AUTO 14003KT //// 22/// Q1013

Closest aviation forecast (TAF) to Labasa Airport

Closest forecast is Nausori International Airport, 104.7 nm (193.9 km) SSW. Retrieved 2020/08/08 18:32 UTC (5 hours ago):

TAF NFNA 081728Z 0818/0918 13006KT 9999 SCT020 BKN048